createdAt,value
2019-02-10T00:01:21.416Z,8.44
2019-02-10T00:03:49.999Z,8.29
2019-02-10T00:06:24.507Z,8.84
2019-02-10T00:08:49.219Z,8.64
2019-02-10T00:11:17.989Z,8.92
2019-02-10T00:13:46.595Z,8.11
2019-02-10T00:16:17.699Z,8.63
2019-02-10T00:18:46.316Z,8.06
2019-02-10T00:21:15.012Z,8.32
2019-02-10T00:23:43.592Z,8.83
2019-02-10T00:26:12.252Z,8.52
2019-02-10T00:28:40.844Z,8.69
2019-02-10T00:31:09.465Z,8.06
2019-02-10T00:33:38.093Z,7.95
2019-02-10T00:36:06.675Z,8.14
2019-02-10T00:38:35.274Z,8.03
2019-02-10T00:41:03.868Z,8.69
2019-02-10T00:43:32.439Z,8.44
2019-02-10T00:46:01.026Z,8.66
2019-02-10T00:48:29.637Z,8.59
2019-02-10T00:50:58.489Z,8.16
2019-02-10T00:53:27.115Z,8.75
2019-02-10T00:55:55.837Z,8.72
2019-02-10T00:58:24.687Z,8.74
2019-02-10T01:00:53.345Z,8.83
2019-02-10T01:03:22.003Z,8.34
2019-02-10T01:05:50.663Z,8.44
2019-02-10T01:08:19.440Z,9.01
2019-02-10T01:10:48.357Z,9.16
2019-02-10T01:13:16.867Z,8.55
2019-02-10T01:15:45.726Z,9.33
2019-02-10T01:18:14.335Z,9.21
2019-02-10T01:20:42.934Z,8.47
2019-02-10T01:23:11.515Z,9.06
2019-02-10T01:25:40.118Z,9.66
2019-02-10T01:28:08.694Z,9.18
2019-02-10T01:30:37.460Z,8.91
2019-02-10T01:33:06.048Z,8.81
2019-02-10T01:35:35.092Z,8.66
2019-02-10T01:38:04.225Z,9.04
2019-02-10T01:40:32.791Z,8.77
2019-02-10T01:43:01.697Z,8.74
2019-02-10T01:45:30.320Z,8.75
2019-02-10T01:47:58.917Z,9.48
2019-02-10T01:50:27.507Z,9.49
2019-02-10T01:52:56.147Z,8.75
2019-02-10T01:55:24.750Z,9.27
2019-02-10T01:57:53.347Z,9.75
2019-02-10T02:00:22.176Z,8.87
2019-02-10T02:02:50.839Z,9.00
2019-02-10T02:05:19.411Z,9.05
2019-02-10T02:07:47.983Z,9.06
2019-02-10T02:10:16.560Z,9.30
2019-02-10T02:12:45.243Z,9.11
2019-02-10T02:15:14.513Z,9.47
2019-02-10T02:17:43.103Z,9.23
2019-02-10T02:20:12.118Z,8.78
2019-02-10T02:22:40.718Z,8.24
2019-02-10T02:25:10.431Z,9.01
2019-02-10T02:27:39.178Z,9.25
2019-02-10T02:30:12.570Z,8.77
2019-02-10T02:32:41.270Z,8.68
2019-02-10T02:35:11.129Z,8.73
2019-02-10T02:37:39.805Z,9.01
2019-02-10T02:40:09.847Z,8.82
2019-02-10T02:42:38.563Z,9.21
2019-02-10T02:45:09.360Z,8.83
2019-02-10T02:47:37.979Z,8.71
2019-02-10T02:50:08.039Z,9.55
2019-02-10T02:52:36.637Z,9.75
2019-02-10T02:55:05.411Z,8.95
2019-02-10T02:57:33.988Z,9.55
2019-02-10T03:00:02.622Z,9.65
2019-02-10T03:02:31.199Z,9.69
2019-02-10T03:04:59.794Z,9.39
2019-02-10T03:07:28.406Z,10.26
2019-02-10T03:09:57.087Z,10.04
2019-02-10T03:12:25.684Z,10.07
2019-02-10T03:14:54.278Z,10.04
2019-02-10T03:17:22.970Z,10.18
2019-02-10T03:19:51.600Z,9.42
2019-02-10T03:22:20.196Z,9.29
2019-02-10T03:24:48.783Z,9.61
2019-02-10T03:27:17.384Z,9.21
2019-02-10T03:29:45.976Z,9.76
2019-02-10T03:32:14.568Z,9.81
2019-02-10T03:34:43.160Z,9.69
2019-02-10T03:37:11.780Z,9.31
2019-02-10T03:39:40.509Z,9.61
2019-02-10T03:42:09.183Z,9.51
2019-02-10T03:44:37.813Z,9.39
2019-02-10T03:47:06.383Z,8.92
2019-02-10T03:49:34.972Z,8.69
2019-02-10T03:52:03.548Z,9.64
2019-02-10T03:54:32.225Z,8.87
2019-02-10T03:57:00.887Z,8.38
2019-02-10T03:59:29.822Z,8.19
2019-02-10T04:01:58.480Z,8.03
2019-02-10T04:04:27.075Z,8.36
2019-02-10T04:06:55.910Z,8.33
2019-02-10T04:09:24.496Z,8.10
2019-02-10T04:11:53.103Z,8.06
2019-02-10T04:14:21.919Z,7.46
2019-02-10T04:16:50.508Z,7.94
2019-02-10T04:19:19.356Z,7.97
2019-02-10T04:21:47.941Z,8.44
2019-02-10T04:24:16.518Z,8.81
2019-02-10T04:26:45.152Z,8.62
2019-02-10T04:29:16.559Z,8.45
2019-02-10T04:31:45.179Z,8.32
2019-02-10T04:34:13.753Z,7.86
2019-02-10T04:36:42.532Z,8.05
2019-02-10T04:39:11.114Z,7.81
2019-02-10T04:41:39.719Z,7.88
2019-02-10T04:44:08.294Z,7.76
2019-02-10T04:46:36.901Z,7.81
2019-02-10T04:49:05.478Z,7.86
2019-02-10T04:51:34.051Z,6.90
2019-02-10T04:54:02.964Z,7.20
2019-02-10T04:56:31.587Z,7.78
2019-02-10T04:59:00.194Z,7.59
2019-02-10T05:01:29.023Z,7.42
2019-02-10T05:03:57.602Z,7.25
2019-02-10T05:06:26.221Z,7.06
2019-02-10T05:08:55.102Z,7.56
2019-02-10T05:11:23.687Z,7.39
2019-02-10T05:13:52.340Z,7.86
2019-02-10T05:16:20.911Z,7.81
2019-02-10T05:18:49.536Z,7.36
2019-02-10T05:21:18.217Z,7.61
2019-02-10T05:23:46.932Z,8.42
2019-02-10T05:26:15.471Z,7.73
2019-02-10T05:28:44.105Z,7.68
2019-02-10T05:31:12.679Z,8.05
2019-02-10T05:33:41.291Z,7.88
2019-02-10T05:36:10.082Z,7.46
2019-02-10T05:38:38.696Z,7.51
2019-02-10T05:41:07.321Z,7.61
2019-02-10T05:43:35.905Z,7.62
2019-02-10T05:46:04.505Z,8.10
2019-02-10T05:48:33.098Z,7.65
2019-02-10T05:51:01.695Z,7.71
2019-02-10T05:53:30.597Z,7.94
2019-02-10T05:55:59.163Z,7.75
2019-02-10T05:58:27.758Z,7.38
2019-02-10T06:01:33.512Z,7.84
2019-02-10T06:04:02.112Z,8.00
2019-02-10T06:06:30.740Z,8.10
2019-02-10T06:08:59.350Z,8.82
2019-02-10T06:11:27.932Z,8.15
2019-02-10T06:13:56.506Z,8.07
2019-02-10T06:16:25.111Z,8.50
2019-02-10T06:18:53.694Z,8.54
2019-02-10T06:21:22.274Z,8.64
2019-02-10T06:23:50.828Z,8.91
2019-02-10T06:26:19.493Z,8.41
2019-02-10T06:28:48.056Z,7.70
2019-02-10T06:31:16.693Z,8.15
2019-02-10T06:33:45.273Z,8.20
2019-02-10T06:36:13.886Z,8.72
2019-02-10T06:38:42.440Z,8.52
2019-02-10T06:41:11.032Z,8.46
2019-02-10T06:43:39.610Z,8.23
2019-02-10T06:46:08.230Z,8.13
2019-02-10T06:48:36.821Z,9.04
2019-02-10T06:51:05.439Z,9.03
2019-02-10T06:53:35.043Z,8.48
2019-02-10T06:56:03.630Z,8.34
2019-02-10T06:58:32.218Z,8.29
2019-02-10T07:01:25.715Z,7.68
2019-02-10T07:04:09.316Z,8.98
2019-02-10T07:06:37.992Z,9.38
2019-02-10T07:09:07.028Z,9.34
2019-02-10T07:11:35.630Z,8.36
2019-02-10T07:14:05.862Z,8.09
2019-02-10T07:16:40.858Z,8.66
2019-02-10T07:19:45.527Z,8.43
2019-02-10T07:23:00.295Z,8.33
2019-02-10T07:26:01.306Z,8.81
2019-02-10T07:28:54.843Z,8.64
2019-02-10T07:31:38.493Z,8.73
2019-02-10T07:34:48.365Z,9.13
2019-02-10T07:37:27.933Z,8.17
2019-02-10T07:40:26.877Z,8.49
2019-02-10T07:43:04.693Z,9.11
2019-02-10T07:45:56.253Z,8.50
2019-02-10T07:48:39.132Z,9.70
2019-02-10T07:51:19.225Z,9.76
2019-02-10T07:54:09.480Z,9.06
2019-02-10T07:57:12.037Z,9.13
2019-02-10T08:00:17.869Z,9.08
2019-02-10T08:03:19.108Z,9.31
2019-02-10T08:06:12.135Z,9.26
2019-02-10T08:09:11.433Z,9.73
2019-02-10T08:12:07.963Z,9.02
2019-02-10T08:14:45.627Z,9.16
2019-02-10T08:17:44.289Z,9.16
2019-02-10T08:20:43.592Z,9.01
2019-02-10T08:23:59.677Z,9.18
2019-02-10T08:27:08.447Z,9.44
2019-02-10T08:29:50.193Z,9.19
2019-02-10T08:32:36.957Z,9.45
2019-02-10T08:35:23.040Z,9.55
2019-02-10T08:38:08.570Z,9.03
2019-02-10T08:40:46.975Z,9.08
2019-02-10T08:43:53.013Z,9.45
2019-02-10T08:46:30.988Z,9.72
2019-02-10T08:49:23.176Z,9.30
2019-02-10T08:52:30.779Z,9.93
2019-02-10T08:55:00.262Z,9.72
2019-02-10T08:57:28.899Z,9.72
2019-02-10T08:59:57.553Z,9.92
2019-02-10T09:02:26.217Z,9.64
2019-02-10T09:04:54.939Z,9.42
2019-02-10T09:07:23.926Z,9.42
2019-02-10T09:09:52.548Z,9.38
2019-02-10T09:12:21.213Z,9.63
2019-02-10T09:14:49.903Z,9.71
2019-02-10T09:17:18.647Z,9.21
2019-02-10T09:19:47.272Z,10.04
2019-02-10T09:22:15.898Z,9.87
2019-02-10T09:24:44.606Z,9.87
2019-02-10T09:27:13.428Z,9.48
2019-02-10T09:29:42.082Z,9.80
2019-02-10T09:32:11.257Z,9.98
2019-02-10T09:34:39.875Z,9.47
2019-02-10T09:37:08.493Z,9.90
2019-02-10T09:39:37.168Z,9.90
2019-02-10T09:42:05.853Z,9.93
2019-02-10T09:44:34.420Z,9.83
2019-02-10T09:47:03.085Z,9.77
2019-02-10T09:49:31.693Z,9.77
2019-02-10T09:52:00.357Z,10.04
2019-02-10T09:54:28.968Z,9.67
2019-02-10T09:56:57.687Z,10.08
2019-02-10T09:59:26.301Z,10.05
2019-02-10T10:01:54.919Z,10.37
2019-02-10T10:04:23.598Z,10.35
2019-02-10T10:06:52.346Z,10.35
2019-02-10T10:09:20.959Z,10.38
2019-02-10T10:11:49.591Z,9.84
2019-02-10T10:14:19.713Z,9.84
2019-02-10T10:16:48.418Z,9.95
2019-02-10T10:19:17.019Z,9.95
2019-02-10T10:21:45.725Z,10.62
2019-02-10T10:24:14.723Z,10.28
2019-02-10T10:26:43.408Z,10.28
2019-02-10T10:29:12.032Z,9.76
2019-02-10T10:31:40.656Z,10.00
2019-02-10T10:34:09.320Z,10.00
2019-02-10T10:36:38.047Z,10.09
2019-02-10T10:39:07.312Z,10.06
2019-02-10T10:41:35.983Z,10.06
2019-02-10T10:44:04.657Z,10.02
2019-02-10T10:46:33.316Z,9.78
2019-02-10T10:49:01.993Z,9.88
2019-02-10T10:51:30.622Z,9.88
2019-02-10T10:53:59.375Z,10.27
2019-02-10T10:56:28.095Z,10.36
2019-02-10T10:58:57.022Z,10.04
2019-02-10T11:01:25.705Z,10.08
2019-02-10T11:03:54.340Z,9.99
2019-02-10T11:06:23.011Z,10.31
2019-02-10T11:08:51.704Z,10.31
2019-02-10T11:11:20.473Z,9.92
2019-02-10T11:13:49.151Z,10.09
2019-02-10T11:16:17.840Z,9.51
2019-02-10T11:18:46.418Z,9.88
2019-02-10T11:21:15.162Z,10.04
2019-02-10T11:23:43.816Z,10.36
2019-02-10T11:26:12.525Z,10.34
2019-02-10T11:28:41.156Z,10.02
2019-02-10T11:31:09.918Z,10.20
2019-02-10T11:33:38.632Z,10.20
2019-02-10T11:36:07.470Z,9.82
2019-02-10T11:38:36.093Z,10.06
2019-02-10T11:41:04.750Z,10.06
2019-02-10T11:43:33.794Z,10.75
2019-02-10T11:46:02.493Z,10.75
2019-02-10T11:48:31.092Z,10.77
2019-02-10T11:51:00.441Z,11.38
2019-02-10T11:53:29.196Z,11.38
2019-02-10T11:55:57.824Z,11.02
2019-02-10T11:58:26.444Z,10.42
2019-02-10T12:00:55.093Z,10.42
2019-02-10T12:03:23.742Z,10.67
2019-02-10T12:05:52.391Z,10.67
2019-02-10T12:08:21.078Z,10.67
2019-02-10T12:10:49.873Z,10.67
2019-02-10T12:13:18.646Z,10.45
2019-02-10T12:15:47.238Z,10.63
2019-02-10T12:18:15.869Z,11.11
2019-02-10T12:20:44.495Z,11.11
2019-02-10T12:23:13.177Z,10.86
2019-02-10T12:25:41.912Z,11.03
2019-02-10T12:28:10.518Z,11.03
2019-02-10T12:30:39.231Z,10.74
2019-02-10T12:33:07.876Z,10.74
2019-02-10T12:35:36.531Z,10.95
2019-02-10T12:38:05.243Z,10.95
2019-02-10T12:40:33.962Z,10.83
2019-02-10T12:43:02.544Z,11.47
2019-02-10T12:45:31.613Z,10.64
2019-02-10T12:48:00.401Z,10.64
2019-02-10T12:50:29.257Z,11.02
2019-02-10T12:52:58.210Z,10.60
2019-02-10T12:55:27.329Z,10.46
2019-02-10T12:57:56.048Z,10.79
2019-02-10T13:00:24.833Z,10.79
2019-02-10T13:02:53.485Z,11.06
2019-02-10T13:05:22.092Z,11.41
2019-02-10T13:07:50.697Z,11.20
2019-02-10T13:10:19.400Z,11.20
2019-02-10T13:12:48.045Z,10.48
2019-02-10T13:15:16.805Z,10.65
2019-02-10T13:17:45.502Z,10.94
2019-02-10T13:20:14.307Z,11.05
2019-02-10T13:22:43.028Z,11.05
2019-02-10T13:25:11.810Z,11.03
2019-02-10T13:27:40.598Z,10.68
2019-02-10T13:30:10.939Z,10.31
2019-02-10T13:32:39.571Z,10.45
2019-02-10T13:35:08.359Z,10.75
2019-02-10T13:37:37.033Z,10.75
2019-02-10T13:40:16.224Z,11.13
2019-02-10T13:42:38.541Z,10.70
2019-02-10T13:45:07.522Z,10.70
2019-02-10T13:47:36.238Z,10.37
2019-02-10T13:50:05.762Z,11.07
2019-02-10T13:52:34.435Z,10.91
2019-02-10T13:55:03.314Z,10.30
2019-02-10T13:57:32.215Z,10.30
2019-02-10T14:00:00.976Z,9.66
2019-02-10T14:02:29.605Z,10.04
2019-02-10T14:04:59.044Z,9.54
2019-02-10T14:07:27.800Z,9.54
2019-02-10T14:09:56.535Z,8.88
2019-02-10T14:12:25.261Z,8.88
2019-02-10T14:14:53.932Z,9.35
2019-02-10T14:17:22.682Z,9.35
2019-02-10T14:19:51.375Z,10.02
2019-02-10T14:22:19.994Z,9.79
2019-02-10T14:24:48.623Z,9.69
2019-02-10T14:27:17.269Z,8.86
2019-02-10T14:29:45.939Z,9.17
2019-02-10T14:32:14.651Z,8.80
2019-02-10T14:34:43.356Z,9.41
2019-02-10T14:37:12.026Z,9.56
2019-02-10T14:39:40.640Z,9.39
2019-02-10T14:42:09.306Z,8.96
2019-02-10T14:44:37.886Z,9.54
2019-02-10T14:47:06.486Z,9.50
2019-02-10T14:49:35.125Z,9.46
2019-02-10T14:52:03.741Z,9.30
2019-02-10T14:54:32.353Z,9.08
2019-02-10T14:57:01.212Z,8.60
2019-02-10T14:59:29.836Z,9.16
2019-02-10T15:04:26.038Z,9.71
2019-02-10T15:06:54.682Z,9.08
2019-02-10T15:09:23.357Z,9.36
2019-02-10T15:11:51.970Z,9.63
2019-02-10T15:14:20.604Z,9.09
2019-02-10T15:16:49.262Z,9.50
2019-02-10T15:19:17.959Z,9.24
2019-02-10T15:21:46.535Z,9.68
2019-02-10T15:24:15.220Z,9.31
2019-02-10T15:26:43.814Z,10.09
2019-02-10T15:29:12.497Z,10.16
2019-02-10T15:31:41.177Z,9.75
2019-02-10T15:34:09.854Z,9.59
2019-02-10T15:36:38.426Z,9.24
2019-02-10T15:39:07.106Z,9.83
2019-02-10T15:41:35.714Z,9.22
2019-02-10T15:44:04.416Z,9.15
2019-02-10T15:46:34.027Z,9.49
2019-02-10T15:49:02.700Z,10.08
2019-02-10T15:51:36.890Z,9.61
2019-02-10T15:54:01.710Z,9.66
2019-02-10T15:56:30.326Z,8.87
2019-02-10T15:58:59.005Z,8.66
2019-02-10T16:01:27.719Z,9.28
2019-02-10T16:03:56.318Z,9.34
2019-02-10T16:06:25.005Z,8.96
2019-02-10T16:08:53.616Z,8.58
2019-02-10T16:11:22.297Z,8.76
2019-02-10T16:13:50.887Z,8.49
2019-02-10T16:16:19.485Z,8.29
2019-02-10T16:18:48.132Z,8.30
2019-02-10T16:21:16.941Z,8.24
2019-02-10T16:23:45.551Z,7.56
2019-02-10T16:26:14.376Z,7.71
2019-02-10T16:28:44.546Z,7.79
2019-02-10T16:31:13.092Z,7.53
2019-02-10T16:33:42.427Z,7.78
2019-02-10T16:36:11.033Z,7.09
2019-02-10T16:38:39.703Z,7.76
2019-02-10T16:41:08.245Z,7.48
2019-02-10T16:43:37.087Z,7.95
2019-02-10T16:46:05.686Z,7.77
2019-02-10T16:48:34.326Z,7.50
2019-02-10T16:51:02.971Z,7.59
2019-02-10T16:53:31.573Z,7.25
2019-02-10T16:56:00.170Z,7.00
2019-02-10T16:58:28.733Z,7.37
2019-02-10T17:00:57.309Z,7.47
2019-02-10T17:03:25.920Z,7.49
2019-02-10T17:05:54.576Z,7.24
2019-02-10T17:08:23.438Z,7.52
2019-02-10T17:10:52.107Z,7.57
2019-02-10T17:13:20.696Z,7.73
2019-02-10T17:15:49.295Z,8.14
2019-02-10T17:18:17.904Z,7.61
2019-02-10T17:20:46.520Z,7.37
2019-02-10T17:23:15.114Z,7.76
2019-02-10T17:25:43.715Z,7.68
2019-02-10T17:28:12.321Z,7.58
2019-02-10T17:30:40.941Z,7.62
2019-02-10T17:33:09.821Z,7.80
2019-02-10T17:35:38.430Z,7.99
2019-02-10T17:38:07.023Z,7.55
2019-02-10T17:40:38.665Z,7.46
2019-02-10T17:43:07.258Z,6.88
2019-02-10T17:45:35.905Z,6.87
2019-02-10T17:48:04.504Z,7.00
2019-02-10T17:50:33.088Z,7.40
2019-02-10T17:53:01.686Z,7.84
2019-02-10T17:55:30.272Z,7.18
2019-02-10T17:57:58.861Z,7.12
2019-02-10T18:00:31.403Z,7.20
2019-02-10T18:03:00.003Z,7.54
2019-02-10T18:05:28.582Z,7.24
2019-02-10T18:07:57.204Z,7.47
2019-02-10T18:10:25.785Z,7.22
2019-02-10T18:12:54.375Z,7.62
2019-02-10T18:15:40.582Z,6.93
2019-02-10T18:18:16.078Z,7.14
2019-02-10T18:20:54.926Z,7.13
2019-02-10T18:23:45.648Z,6.97
2019-02-10T18:26:31.930Z,7.09
2019-02-10T18:29:13.312Z,7.40
2019-02-10T18:31:51.552Z,7.27
2019-02-10T18:34:26.907Z,7.46
2019-02-10T18:37:03.816Z,7.20
2019-02-10T18:39:40.234Z,7.70
2019-02-10T18:42:40.122Z,7.96
2019-02-10T18:45:26.571Z,7.51
2019-02-10T18:48:12.816Z,7.05
2019-02-10T18:50:57.476Z,6.92
2019-02-10T18:53:48.092Z,6.95
2019-02-10T18:56:31.461Z,7.28
2019-02-10T18:59:10.530Z,7.51
2019-02-10T19:02:07.009Z,7.18
2019-02-10T19:04:52.926Z,6.57
2019-02-10T19:07:33.796Z,6.83
2019-02-10T19:10:20.148Z,6.69
2019-02-10T19:13:06.439Z,6.55
2019-02-10T19:15:59.227Z,6.79
2019-02-10T19:18:33.824Z,6.93
2019-02-10T19:21:20.117Z,7.05
2019-02-10T19:24:06.395Z,7.00
2019-02-10T19:26:57.322Z,6.96
2019-02-10T19:29:43.081Z,6.70
2019-02-10T19:32:29.579Z,6.99
2019-02-10T19:35:20.297Z,7.01
2019-02-10T19:38:06.673Z,6.34
2019-02-10T19:40:51.309Z,6.99
2019-02-10T19:43:40.060Z,6.98
2019-02-10T19:46:43.290Z,6.75
2019-02-10T19:49:27.191Z,6.67
2019-02-10T19:52:26.788Z,6.70
2019-02-10T19:55:02.989Z,6.43
2019-02-10T19:57:49.218Z,6.42
2019-02-10T20:00:32.395Z,6.14
2019-02-10T20:03:18.697Z,6.11
2019-02-10T20:06:05.080Z,6.12
2019-02-10T20:08:49.796Z,6.23
2019-02-10T20:11:37.465Z,6.04
2019-02-10T20:14:21.198Z,6.46
2019-02-10T20:17:11.875Z,6.35
2019-02-10T20:20:08.130Z,5.86
2019-02-10T20:23:04.723Z,6.14
2019-02-10T20:25:52.567Z,6.22
2019-02-10T20:28:46.152Z,5.94
2019-02-10T20:31:24.538Z,6.07
2019-02-10T20:36:49.816Z,5.96
2019-02-10T20:39:28.278Z,6.27
2019-02-10T20:42:18.170Z,6.59
2019-02-10T20:45:04.768Z,6.36
2019-02-10T20:47:51.005Z,6.28
2019-02-10T20:50:35.708Z,6.33
2019-02-10T20:53:20.368Z,6.41
2019-02-10T20:56:20.224Z,6.00
2019-02-10T20:59:03.682Z,5.98
2019-02-10T21:01:50.161Z,5.90
2019-02-10T21:04:25.976Z,5.76
2019-02-10T21:07:08.216Z,5.96
2019-02-10T21:09:54.927Z,5.86
2019-02-10T21:12:35.801Z,5.93
2019-02-10T21:15:39.080Z,6.10
2019-02-10T21:18:23.707Z,6.32
2019-02-10T21:21:14.848Z,6.10
2019-02-10T21:24:01.299Z,5.97
2019-02-10T21:26:47.983Z,6.20
2019-02-10T21:29:38.743Z,6.02
2019-02-10T21:32:14.532Z,6.56
2019-02-10T21:35:02.208Z,5.61
2019-02-10T21:37:42.273Z,6.27
2019-02-10T21:40:19.210Z,6.13
2019-02-10T21:42:59.731Z,5.84
2019-02-10T21:45:50.259Z,6.59
2019-02-10T21:48:25.444Z,6.62
2019-02-10T21:50:54.036Z,5.80
2019-02-10T21:53:22.673Z,5.81
2019-02-10T21:55:51.494Z,5.52
2019-02-10T21:58:20.086Z,5.77
2019-02-10T22:00:48.709Z,6.16
2019-02-10T22:03:17.313Z,5.71
2019-02-10T22:05:45.925Z,5.31
2019-02-10T22:08:14.815Z,4.91
2019-02-10T22:10:43.426Z,5.12
2019-02-10T22:13:12.058Z,5.33
2019-02-10T22:15:40.655Z,5.67
2019-02-10T22:18:09.305Z,5.40
2019-02-10T22:20:37.889Z,4.91
2019-02-10T22:23:06.483Z,5.24
2019-02-10T22:25:35.174Z,5.10
2019-02-10T22:28:03.767Z,4.92
2019-02-10T22:30:32.355Z,5.37
2019-02-10T22:33:01.094Z,4.84
2019-02-10T22:35:29.701Z,5.15
2019-02-10T22:37:58.292Z,5.17
2019-02-10T22:40:26.904Z,5.18
2019-02-10T22:42:55.518Z,4.74
2019-02-10T22:45:24.133Z,4.75
2019-02-10T22:47:52.750Z,5.54
2019-02-10T22:50:21.343Z,4.58
2019-02-10T22:52:49.941Z,5.51
2019-02-10T22:55:18.833Z,4.53
2019-02-10T22:57:47.473Z,4.92
2019-02-10T23:00:36.806Z,5.31
2019-02-10T23:03:05.898Z,5.06
2019-02-10T23:05:34.679Z,5.06
2019-02-10T23:08:03.304Z,4.80
2019-02-10T23:10:31.896Z,4.98
2019-02-10T23:13:00.479Z,5.75
2019-02-10T23:15:29.084Z,4.51
2019-02-10T23:17:57.685Z,5.00
2019-02-10T23:20:26.288Z,4.22
2019-02-10T23:22:54.937Z,4.49
2019-02-10T23:25:23.543Z,4.65
2019-02-10T23:27:52.127Z,3.87
2019-02-10T23:30:20.729Z,5.01
2019-02-10T23:32:49.336Z,4.85
2019-02-10T23:35:17.995Z,5.11
2019-02-10T23:37:46.623Z,4.42
2019-02-10T23:40:15.210Z,4.82
2019-02-10T23:42:43.806Z,5.02
2019-02-10T23:45:12.484Z,5.12
2019-02-10T23:47:41.066Z,4.31
2019-02-10T23:50:09.742Z,4.15
2019-02-10T23:52:38.426Z,5.03
2019-02-10T23:55:07.088Z,3.98
2019-02-10T23:57:35.690Z,4.23
